createdAt,value
2019-01-06T00:00:17.804Z,51.27
2019-01-06T00:02:50.864Z,43.00
2019-01-06T00:05:23.802Z,49.37
2019-01-06T00:07:59.952Z,37.90
2019-01-06T00:10:33.167Z,40.30
2019-01-06T00:13:03.391Z,41.30
2019-01-06T00:15:33.621Z,34.33
2019-01-06T00:18:09.659Z,28.57
2019-01-06T00:20:58.235Z,25.77
2019-01-06T00:23:43.645Z,28.67
2019-01-06T00:26:23.028Z,29.37
2019-01-06T00:28:53.247Z,24.57
2019-01-06T00:31:30.440Z,26.13
2019-01-06T00:34:16.836Z,25.17
2019-01-06T00:36:47.061Z,24.57
2019-01-06T00:39:33.784Z,21.87
2019-01-06T00:42:06.705Z,35.07
2019-01-06T00:44:39.608Z,22.37
2019-01-06T00:47:18.943Z,21.67
2019-01-06T00:50:01.358Z,20.37
2019-01-06T00:52:40.728Z,18.37
2019-01-06T00:55:16.715Z,20.53
2019-01-06T00:57:47.008Z,23.87
2019-01-06T01:00:19.927Z,24.40
2019-01-06T01:03:03.166Z,23.90
2019-01-06T01:05:45.303Z,21.90
2019-01-06T01:08:18.048Z,19.60
2019-01-06T01:11:04.670Z,19.07
2019-01-06T01:13:40.850Z,16.97
2019-01-06T01:16:20.067Z,20.47
2019-01-06T01:18:52.846Z,17.17
2019-01-06T01:21:28.989Z,16.50
2019-01-06T01:24:08.134Z,17.67
2019-01-06T01:26:56.896Z,16.43
2019-01-06T01:29:30.102Z,15.77
2019-01-06T01:32:16.758Z,14.30
2019-01-06T01:34:55.791Z,19.10
2019-01-06T01:37:28.954Z,23.00
2019-01-06T01:39:59.176Z,21.53
2019-01-06T01:42:35.480Z,26.30
2019-01-06T01:45:09.532Z,26.03
2019-01-06T01:47:48.696Z,21.40
2019-01-06T01:50:24.663Z,23.80
2019-01-06T01:52:54.925Z,22.30
2019-01-06T01:55:41.609Z,20.37
2019-01-06T01:58:20.556Z,18.53
2019-01-06T02:00:50.826Z,19.32
2019-01-06T02:03:39.126Z,18.43
2019-01-06T02:06:27.398Z,16.47
2019-01-06T02:08:57.620Z,15.93
2019-01-06T02:11:44.799Z,11.37
2019-01-06T02:14:23.902Z,14.67
2019-01-06T02:17:06.624Z,17.30
2019-01-06T02:19:39.801Z,14.70
2019-01-06T02:22:10.024Z,17.33
2019-01-06T02:24:56.514Z,19.03
2019-01-06T02:27:26.713Z,16.57
2019-01-06T02:29:56.960Z,20.00
2019-01-06T02:32:27.180Z,15.50
2019-01-06T02:34:57.397Z,17.60
2019-01-06T02:37:27.614Z,18.63
2019-01-06T02:40:14.391Z,16.37
2019-01-06T02:42:59.837Z,17.13
2019-01-06T02:45:46.165Z,19.20
2019-01-06T02:48:19.126Z,22.30
2019-01-06T02:50:49.336Z,17.93
2019-01-06T02:53:34.693Z,19.70
2019-01-06T02:56:16.846Z,19.33
2019-01-06T02:58:49.910Z,23.80
2019-01-06T03:01:32.085Z,22.67
2019-01-06T03:04:05.245Z,20.40
2019-01-06T03:06:47.728Z,16.87
2019-01-06T03:09:26.968Z,20.23
2019-01-06T03:12:10.746Z,21.43
2019-01-06T03:14:50.354Z,21.13
2019-01-06T03:17:23.548Z,22.53
2019-01-06T03:19:53.794Z,20.13
2019-01-06T03:22:24.053Z,21.47
2019-01-06T03:24:57.271Z,23.30
2019-01-06T03:27:34.604Z,21.87
2019-01-06T03:30:14.180Z,20.30
2019-01-06T03:32:44.433Z,22.30
2019-01-06T03:35:31.175Z,20.47
2019-01-06T03:38:01.388Z,19.50
2019-01-06T03:40:48.098Z,18.73
2019-01-06T03:43:33.148Z,20.37
2019-01-06T03:46:15.609Z,19.73
2019-01-06T03:48:48.541Z,17.90
2019-01-06T03:51:34.969Z,19.70
2019-01-06T03:54:21.621Z,19.33
2019-01-06T03:56:51.879Z,20.10
2019-01-06T03:59:37.381Z,18.77
2019-01-06T04:02:22.444Z,20.10
2019-01-06T04:05:08.811Z,19.80
2019-01-06T04:07:55.109Z,18.60
2019-01-06T04:10:41.689Z,15.53
2019-01-06T04:13:27.913Z,20.13
2019-01-06T04:16:16.307Z,18.20
2019-01-06T04:18:52.218Z,22.40
2019-01-06T04:21:22.444Z,17.23
2019-01-06T04:24:08.930Z,16.00
2019-01-06T04:26:55.269Z,19.47
2019-01-06T04:29:31.317Z,17.53
2019-01-06T04:32:10.781Z,16.30
2019-01-06T04:34:46.949Z,17.80
2019-01-06T04:37:17.206Z,18.37
2019-01-06T04:39:56.308Z,19.63
2019-01-06T04:42:45.101Z,20.03
2019-01-06T04:45:31.372Z,21.37
2019-01-06T04:48:04.085Z,23.90
2019-01-06T04:50:42.911Z,20.87
2019-01-06T04:53:13.144Z,23.13
2019-01-06T04:55:55.338Z,20.53
2019-01-06T04:58:37.387Z,25.70
2019-01-06T05:01:18.068Z,23.20
2019-01-06T05:03:48.293Z,21.67
2019-01-06T05:06:32.294Z,19.97
2019-01-06T05:09:18.769Z,20.23
2019-01-06T05:11:49.018Z,20.73
2019-01-06T05:14:21.990Z,22.23
2019-01-06T05:16:55.155Z,20.47
2019-01-06T05:19:32.046Z,23.93
2019-01-06T05:22:02.284Z,24.00
2019-01-06T05:24:50.643Z,23.80
2019-01-06T05:27:23.520Z,21.27
2019-01-06T05:30:10.279Z,24.47
2019-01-06T05:32:46.643Z,22.63
2019-01-06T05:35:33.614Z,29.30
2019-01-06T05:38:09.548Z,24.73
2019-01-06T05:40:42.510Z,19.63
2019-01-06T05:43:18.812Z,20.80
2019-01-06T05:45:51.782Z,22.13
2019-01-06T05:48:24.807Z,23.83
2019-01-06T05:51:01.355Z,23.80
2019-01-06T05:53:47.596Z,27.00
2019-01-06T05:56:23.599Z,24.87
2019-01-06T05:59:12.106Z,29.00
2019-01-06T06:01:54.452Z,23.37
2019-01-06T06:04:27.407Z,30.20
2019-01-06T06:07:00.444Z,26.77
2019-01-06T06:09:30.692Z,27.67
2019-01-06T06:12:10.272Z,25.93
2019-01-06T06:14:43.303Z,30.43
2019-01-06T06:17:19.619Z,22.53
2019-01-06T06:19:49.852Z,24.37
2019-01-06T06:22:22.836Z,21.63
2019-01-06T06:25:09.337Z,28.00
2019-01-06T06:27:45.494Z,33.67
2019-01-06T06:30:18.657Z,21.37
2019-01-06T06:32:54.757Z,21.53
2019-01-06T06:35:40.020Z,22.00
2019-01-06T06:38:15.981Z,23.97
2019-01-06T06:40:46.200Z,23.57
2019-01-06T06:43:20.492Z,22.40
2019-01-06T06:45:53.537Z,23.13
2019-01-06T06:48:23.787Z,23.80
2019-01-06T06:50:56.988Z,24.77
2019-01-06T06:53:27.248Z,27.87
2019-01-06T06:56:13.622Z,21.83
2019-01-06T06:58:46.634Z,26.73
2019-01-06T07:01:31.946Z,24.77
2019-01-06T07:04:11.470Z,28.80
2019-01-06T07:06:47.973Z,18.93
2019-01-06T07:09:34.821Z,23.77
2019-01-06T07:12:11.001Z,16.87
2019-01-06T07:14:46.916Z,22.00
2019-01-06T07:18:04.832Z,22.10
2019-01-06T07:20:51.234Z,16.40
2019-01-06T07:23:21.472Z,15.70
2019-01-06T07:25:54.446Z,17.43
2019-01-06T07:28:40.809Z,14.30
2019-01-06T07:31:26.385Z,19.53
2019-01-06T07:33:56.644Z,20.70
2019-01-06T07:36:43.822Z,17.37
2019-01-06T07:39:30.612Z,19.60
2019-01-06T07:42:09.530Z,18.10
2019-01-06T07:44:42.706Z,18.67
2019-01-06T07:47:29.184Z,14.37
2019-01-06T07:50:11.227Z,22.83
2019-01-06T07:52:44.487Z,20.00
2019-01-06T07:55:14.680Z,17.30
2019-01-06T07:58:10.950Z,18.53
2019-01-06T08:00:57.227Z,16.93
2019-01-06T08:03:30.322Z,16.00
2019-01-06T08:06:16.769Z,20.53
2019-01-06T08:08:49.778Z,21.17
2019-01-06T08:11:28.608Z,21.33
2019-01-06T08:14:13.818Z,22.13
2019-01-06T08:16:50.168Z,20.63
2019-01-06T08:19:38.310Z,22.87
2019-01-06T08:22:14.625Z,22.53
2019-01-06T08:24:53.967Z,20.33
2019-01-06T08:27:26.635Z,22.37
2019-01-06T08:30:02.466Z,23.60
2019-01-06T08:32:32.712Z,23.83
2019-01-06T08:35:10.899Z,24.43
2019-01-06T08:37:47.043Z,28.73
2019-01-06T08:40:32.394Z,29.50
2019-01-06T08:43:08.467Z,29.63
2019-01-06T08:45:56.841Z,28.10
2019-01-06T08:48:39.103Z,29.97
2019-01-06T08:51:10.892Z,29.40
2019-01-06T08:53:44.076Z,29.53
2019-01-06T08:56:23.209Z,29.53
2019-01-06T08:58:59.320Z,31.73
2019-01-06T09:01:35.727Z,30.37
2019-01-06T09:04:17.914Z,30.17
2019-01-06T09:07:03.483Z,32.47
2019-01-06T09:09:50.167Z,35.20
2019-01-06T09:12:20.427Z,35.13
2019-01-06T09:14:56.706Z,36.47
2019-01-06T09:17:43.102Z,31.33
2019-01-06T09:20:16.300Z,32.10
2019-01-06T09:23:02.965Z,32.60
2019-01-06T09:25:40.958Z,33.67
2019-01-06T09:28:24.021Z,31.17
2019-01-06T09:31:09.244Z,32.50
2019-01-06T09:33:42.058Z,32.50
2019-01-06T09:36:15.306Z,33.70
2019-01-06T09:38:48.341Z,30.53
2019-01-06T09:41:34.835Z,31.33
2019-01-06T09:44:21.166Z,30.50
2019-01-06T09:47:00.512Z,35.77
2019-01-06T09:49:33.417Z,34.47
2019-01-06T09:52:12.773Z,32.37
2019-01-06T09:54:51.929Z,30.63
2019-01-06T09:57:22.173Z,51.60
2019-01-06T10:00:04.294Z,37.03
2019-01-06T10:02:34.555Z,40.83
2019-01-06T10:05:10.460Z,37.93
2019-01-06T10:07:43.612Z,33.47
2019-01-06T10:10:22.820Z,42.55
2019-01-06T10:13:05.058Z,39.03
2019-01-06T10:15:50.396Z,43.90
2019-01-06T10:18:36.849Z,40.57
2019-01-06T10:21:07.069Z,40.70
2019-01-06T10:23:43.075Z,41.37
2019-01-06T10:26:25.064Z,37.13
2019-01-06T10:29:13.301Z,42.33
2019-01-06T10:32:01.817Z,36.37
2019-01-06T10:34:34.821Z,34.53
2019-01-06T10:37:05.070Z,44.07
2019-01-06T10:39:51.553Z,42.93
2019-01-06T10:42:24.768Z,43.83
2019-01-06T10:45:04.213Z,45.47
2019-01-06T10:47:50.812Z,42.33
2019-01-06T10:50:21.151Z,42.17
2019-01-06T10:52:54.287Z,42.00
2019-01-06T10:55:42.162Z,39.87
2019-01-06T10:58:30.563Z,38.50
2019-01-06T11:01:12.568Z,39.67
2019-01-06T11:03:42.800Z,39.50
2019-01-06T11:06:13.065Z,41.30
2019-01-06T11:08:49.061Z,41.97
2019-01-06T11:11:28.480Z,37.37
2019-01-06T11:14:07.873Z,40.97
2019-01-06T11:16:54.160Z,38.43
2019-01-06T11:19:30.124Z,40.23
2019-01-06T11:22:00.344Z,39.13
2019-01-06T11:24:30.588Z,40.63
2019-01-06T11:27:17.180Z,38.63
2019-01-06T11:29:47.407Z,39.80
2019-01-06T11:32:20.694Z,36.73
2019-01-06T11:34:59.952Z,35.87
2019-01-06T11:37:30.169Z,42.07
2019-01-06T11:40:16.438Z,44.47
2019-01-06T11:42:46.931Z,41.50
2019-01-06T11:45:29.122Z,39.33
2019-01-06T11:48:14.883Z,38.33
2019-01-06T11:51:00.029Z,43.17
2019-01-06T11:53:33.335Z,44.80
2019-01-06T11:56:03.561Z,45.67
2019-01-06T11:58:50.157Z,44.83
2019-01-06T12:01:20.387Z,48.87
2019-01-06T12:04:06.900Z,45.40
2019-01-06T12:06:45.790Z,47.40
2019-01-06T12:09:21.736Z,52.85
2019-01-06T12:12:10.350Z,54.37
2019-01-06T12:14:43.324Z,51.17
2019-01-06T12:17:19.282Z,49.47
2019-01-06T12:19:49.823Z,47.37
2019-01-06T12:22:36.438Z,44.67
2019-01-06T12:25:07.810Z,42.30
2019-01-06T12:27:38.056Z,51.37
2019-01-06T12:30:25.583Z,45.33
2019-01-06T12:32:55.815Z,40.07
2019-01-06T12:35:44.749Z,39.57
2019-01-06T12:38:17.586Z,45.30
2019-01-06T12:41:03.992Z,37.37
2019-01-06T12:43:56.428Z,42.70
2019-01-06T12:46:42.590Z,42.20
2019-01-06T12:49:12.817Z,38.73
2019-01-06T12:51:43.758Z,36.37
2019-01-06T12:54:32.652Z,32.43
2019-01-06T12:57:17.715Z,40.90
2019-01-06T13:00:04.085Z,33.47
2019-01-06T13:02:40.073Z,31.40
2019-01-06T13:05:27.875Z,38.35
2019-01-06T13:08:03.897Z,30.13
2019-01-06T13:10:50.249Z,36.87
2019-01-06T13:13:23.804Z,37.03
2019-01-06T13:16:03.044Z,34.47
2019-01-06T13:18:36.280Z,34.97
2019-01-06T13:21:21.835Z,33.47
2019-01-06T13:23:58.145Z,33.53
2019-01-06T13:26:33.220Z,40.83
2019-01-06T13:29:06.258Z,33.80
2019-01-06T13:31:42.388Z,29.07
2019-01-06T13:34:29.358Z,36.37
2019-01-06T13:37:08.523Z,35.47
2019-01-06T13:39:44.973Z,32.60
2019-01-06T13:42:21.443Z,30.93
2019-01-06T13:44:55.640Z,32.80
2019-01-06T13:47:45.129Z,31.90
2019-01-06T13:50:32.073Z,29.77
2019-01-06T13:53:05.349Z,32.13
2019-01-06T13:55:35.643Z,30.23
2019-01-06T13:58:05.841Z,37.60
2019-01-06T14:00:44.969Z,35.30
2019-01-06T14:03:15.203Z,29.50
2019-01-06T14:05:54.263Z,29.80
2019-01-06T14:08:24.491Z,36.77
2019-01-06T14:11:00.681Z,32.93
2019-01-06T14:13:30.933Z,28.63
2019-01-06T14:16:15.216Z,29.50
2019-01-06T14:19:01.795Z,25.60
2019-01-06T14:21:47.030Z,28.50
2019-01-06T14:24:33.482Z,29.87
2019-01-06T14:27:12.936Z,29.43
2019-01-06T14:29:49.134Z,27.97
2019-01-06T14:32:22.081Z,25.23
2019-01-06T14:35:08.554Z,27.17
2019-01-06T14:37:54.068Z,25.17
2019-01-06T14:40:24.269Z,26.77
2019-01-06T14:43:10.884Z,25.67
2019-01-06T14:45:41.130Z,26.77
2019-01-06T14:48:17.321Z,27.50
2019-01-06T14:50:47.545Z,23.20
2019-01-06T14:53:33.915Z,27.27
2019-01-06T14:56:06.620Z,25.70
2019-01-06T14:58:42.765Z,27.87
2019-01-06T15:01:28.217Z,31.33
2019-01-06T15:04:07.578Z,30.80
2019-01-06T15:06:40.961Z,31.13
2019-01-06T15:09:11.214Z,28.03
2019-01-06T15:11:57.666Z,26.97
2019-01-06T15:14:36.810Z,35.30
2019-01-06T15:17:13.110Z,24.87
2019-01-06T15:20:00.035Z,28.40
2019-01-06T15:22:47.447Z,24.27
2019-01-06T15:25:33.824Z,33.27
2019-01-06T15:28:04.081Z,27.93
2019-01-06T15:30:37.243Z,28.60
2019-01-06T15:33:23.688Z,26.97
2019-01-06T15:35:59.399Z,29.50
2019-01-06T15:38:34.102Z,30.17
2019-01-06T15:41:13.372Z,27.27
2019-01-06T15:43:43.604Z,26.53
2019-01-06T15:46:22.710Z,26.57
2019-01-06T15:49:09.949Z,24.80
2019-01-06T15:51:46.093Z,23.80
2019-01-06T15:54:22.355Z,27.13
2019-01-06T15:57:11.143Z,26.03
2019-01-06T15:59:57.833Z,25.07
2019-01-06T16:02:30.762Z,27.37
2019-01-06T16:05:06.721Z,23.20
2019-01-06T16:07:51.936Z,25.83
2019-01-06T16:10:38.544Z,24.77
2019-01-06T16:13:11.557Z,27.57
2019-01-06T16:15:44.473Z,26.87
2019-01-06T16:18:26.425Z,24.83
2019-01-06T16:20:56.692Z,30.10
2019-01-06T16:23:29.936Z,23.23
2019-01-06T16:26:00.173Z,31.48
2019-01-06T16:28:48.435Z,31.90
2019-01-06T16:31:27.745Z,24.43
2019-01-06T16:33:58.019Z,21.90
2019-01-06T16:36:28.270Z,22.43
2019-01-06T16:38:58.490Z,26.20
2019-01-06T16:41:43.868Z,32.00
2019-01-06T16:44:31.633Z,26.13
2019-01-06T16:47:01.971Z,28.47
2019-01-06T16:49:50.048Z,25.87
2019-01-06T16:52:35.548Z,29.17
2019-01-06T16:55:05.825Z,25.83
2019-01-06T16:57:36.048Z,22.97
2019-01-06T17:00:09.573Z,25.20
2019-01-06T17:02:45.757Z,24.67
2019-01-06T17:05:24.645Z,23.00
2019-01-06T17:08:10.214Z,21.57
2019-01-06T17:10:49.520Z,25.63
2019-01-06T17:13:22.755Z,25.33
2019-01-06T17:15:58.996Z,25.20
2019-01-06T17:18:29.441Z,27.32
2019-01-06T17:21:02.483Z,24.50
2019-01-06T17:23:48.861Z,24.47
2019-01-06T17:26:27.827Z,19.97
2019-01-06T17:29:00.889Z,20.13
2019-01-06T17:31:46.380Z,23.27
2019-01-06T17:34:22.368Z,25.63
2019-01-06T17:37:08.676Z,21.93
2019-01-06T17:39:56.856Z,23.13
2019-01-06T17:42:27.820Z,21.70
2019-01-06T17:45:14.464Z,21.07
2019-01-06T17:47:56.630Z,21.63
2019-01-06T17:50:29.641Z,19.83
2019-01-06T17:53:05.870Z,23.50
2019-01-06T17:55:41.727Z,19.47
2019-01-06T17:58:28.221Z,22.77
2019-01-06T18:01:01.256Z,22.87
2019-01-06T18:03:37.195Z,22.13
2019-01-06T18:06:13.173Z,19.47
2019-01-06T18:08:58.358Z,21.30
2019-01-06T18:11:31.541Z,20.37
2019-01-06T18:14:17.609Z,19.60
2019-01-06T18:16:50.676Z,20.37
2019-01-06T18:19:20.955Z,20.27
2019-01-06T18:22:00.483Z,22.87
2019-01-06T18:24:37.587Z,17.87
2019-01-06T18:27:26.173Z,21.13
2019-01-06T18:30:11.290Z,20.47
2019-01-06T18:32:44.353Z,22.93
2019-01-06T18:35:23.181Z,19.33
2019-01-06T18:37:59.421Z,24.20
2019-01-06T18:40:32.342Z,19.47
2019-01-06T18:43:06.913Z,20.17
2019-01-06T18:45:37.185Z,19.97
2019-01-06T18:48:07.445Z,20.70
2019-01-06T18:50:43.583Z,20.60
2019-01-06T18:53:32.134Z,20.27
2019-01-06T18:56:02.528Z,19.40
2019-01-06T18:58:41.748Z,20.37
2019-01-06T19:01:37.006Z,19.03
2019-01-06T19:04:26.771Z,21.83
2019-01-06T19:07:13.553Z,21.80
2019-01-06T19:09:59.773Z,19.53
2019-01-06T19:12:30.056Z,21.53
2019-01-06T19:15:16.574Z,18.73
2019-01-06T19:18:01.801Z,23.40
2019-01-06T19:20:32.029Z,19.90
2019-01-06T19:23:05.166Z,21.47
2019-01-06T19:25:42.039Z,20.53
2019-01-06T19:28:28.679Z,19.57
2019-01-06T19:31:07.871Z,18.20
2019-01-06T19:33:46.809Z,19.20
2019-01-06T19:36:31.986Z,22.30
2019-01-06T19:39:08.123Z,18.77
2019-01-06T19:41:46.971Z,20.03
2019-01-06T19:44:17.227Z,20.60
2019-01-06T19:46:53.437Z,22.63
2019-01-06T19:49:37.920Z,21.73
2019-01-06T19:52:12.979Z,22.10
2019-01-06T19:55:01.248Z,18.30
2019-01-06T19:57:47.094Z,25.43
2019-01-06T20:00:18.157Z,20.00
2019-01-06T20:03:04.868Z,19.47
2019-01-06T20:05:35.164Z,17.83
2019-01-06T20:08:22.006Z,20.50
2019-01-06T20:10:54.761Z,20.07
2019-01-06T20:13:40.836Z,15.50
2019-01-06T20:16:29.642Z,20.80
2019-01-06T20:19:07.765Z,21.07
2019-01-06T20:21:40.769Z,21.17
2019-01-06T20:24:29.145Z,19.67
2019-01-06T20:27:18.918Z,18.67
2019-01-06T20:29:49.455Z,20.93
2019-01-06T20:32:25.856Z,21.70
2019-01-06T20:38:09.624Z,22.53
2019-01-06T20:40:56.544Z,20.00
2019-01-06T20:43:32.663Z,22.67
2019-01-06T20:46:20.792Z,21.23
2019-01-06T20:49:07.477Z,21.53
2019-01-06T20:51:40.564Z,21.37
2019-01-06T20:54:13.754Z,17.17
2019-01-06T20:57:00.516Z,22.77
2019-01-06T20:59:46.977Z,20.33
2019-01-06T21:02:37.870Z,26.33
2019-01-06T21:05:24.262Z,23.50
2019-01-06T21:08:09.743Z,21.53
2019-01-06T21:10:56.186Z,23.77
2019-01-06T21:13:38.400Z,20.13
2019-01-06T21:16:20.538Z,22.37
2019-01-06T21:18:50.746Z,19.10
2019-01-06T21:21:30.057Z,21.10
2019-01-06T21:24:03.047Z,22.63
2019-01-06T21:26:51.992Z,25.17
2019-01-06T21:29:38.789Z,22.27
2019-01-06T21:32:20.751Z,25.37
2019-01-06T21:35:08.916Z,23.37
2019-01-06T21:37:39.119Z,22.10
2019-01-06T21:40:15.217Z,23.03
2019-01-06T21:43:01.845Z,18.23
2019-01-06T21:45:37.988Z,29.90
2019-01-06T21:48:26.788Z,25.77
2019-01-06T21:51:14.998Z,22.97
2019-01-06T21:53:51.158Z,27.37
2019-01-06T21:56:27.182Z,23.03
2019-01-06T21:59:03.371Z,21.37
2019-01-06T22:01:49.555Z,24.03
2019-01-06T22:04:36.710Z,24.77
2019-01-06T22:07:09.691Z,21.97
2019-01-06T22:09:52.174Z,23.90
2019-01-06T22:12:40.932Z,24.50
2019-01-06T22:15:19.896Z,21.27
2019-01-06T22:18:05.314Z,20.90
2019-01-06T22:20:52.002Z,22.00
2019-01-06T22:23:33.881Z,17.90
2019-01-06T22:26:22.407Z,19.70
2019-01-06T22:29:04.884Z,20.40
2019-01-06T22:31:41.234Z,23.37
2019-01-06T22:34:14.222Z,22.80
2019-01-06T22:37:00.609Z,23.63
2019-01-06T22:39:36.692Z,18.40
2019-01-06T22:42:06.938Z,18.23
2019-01-06T22:44:37.242Z,21.63
2019-01-06T22:47:07.462Z,16.63
2019-01-06T22:49:43.817Z,19.47
2019-01-06T22:52:16.526Z,18.70
2019-01-06T22:55:03.130Z,19.00
2019-01-06T22:57:33.450Z,20.10
2019-01-06T23:00:03.694Z,20.40
2019-01-06T23:02:33.946Z,16.53
2019-01-06T23:05:06.674Z,19.80
2019-01-06T23:07:48.788Z,19.43
2019-01-06T23:10:36.996Z,20.63
2019-01-06T23:13:23.480Z,15.80
2019-01-06T23:15:57.441Z,20.93
2019-01-06T23:18:37.008Z,18.67
2019-01-06T23:21:16.380Z,17.50
2019-01-06T23:23:58.482Z,18.07
2019-01-06T23:26:32.993Z,19.17
2019-01-06T23:29:19.604Z,17.83
2019-01-06T23:31:55.646Z,17.57
2019-01-06T23:34:25.880Z,19.73
2019-01-06T23:37:05.245Z,17.80
2019-01-06T23:39:51.808Z,18.53
2019-01-06T23:42:32.102Z,18.60
2019-01-06T23:45:18.581Z,18.50
2019-01-06T23:48:06.642Z,21.23
2019-01-06T23:50:36.886Z,18.00
2019-01-06T23:53:11.712Z,15.83
2019-01-06T23:55:58.122Z,13.73
2019-01-06T23:58:34.113Z,18.47
